
Distance (Route):
Temperature : -4.0°C
Humidity : 88.0%
Pressure : 0hPa| Receiver | Frames | First received | Last received |
|---|---|---|---|
| LY3OO-11 | 274 | 2026-09-04 11:32:32 | 2026-09-04 13:09:02 |
| Receiver | Date | Latitude | Longitude | Direction | Speed | Altitude | Climb | Temperature | Humidity | Pressure | Voltage | Killtimer | Uptime | BKT | XDATA |
|---|---|---|---|---|---|---|---|---|---|---|---|---|---|---|---|
| LY3OO-11 | 2026-09-04 13:09:02 | 54.50627 | 25.45024 | 70° | 57km/h | 3178m | -15.0m/s | -4.0°C | 88.0% | 0hPa | 0V | 00:00:00 | 00:00:00 | 00:00:00 | |
| LY3OO-11 | 2026-09-04 13:08:41 | 59.59226 | -3.59305 | 0° | 0km/h | 51m | 0.0m/s | -4.6°C | 0% | 0hPa | 0V | 00:00:00 | 00:00:00 | 00:00:00 | |
| LY3OO-11 | 2026-09-04 13:08:15 | 24.31516 | 9.78505 | 0° | 0km/h | 604m | 0.0m/s | -6.3°C | 0% | 0hPa | 0V | 00:00:00 | 00:00:00 | 00:00:00 | |
| LY3OO-11 | 2026-09-04 13:07:52 | 24.31516 | 9.78505 | 0° | 0km/h | 604m | 0.0m/s | -8.2°C | 0% | 0hPa | 0V | 00:00:00 | 00:00:00 | 00:00:00 | |
| LY3OO-11 | 2026-09-04 13:07:31 | 54.70040 | 31.89928 | 0° | 0km/h | 1015m | 0.0m/s | -9.7°C | 0% | 0hPa | 0V | 00:00:00 | 00:00:00 | 00:00:00 | |
| LY3OO-11 | 2026-09-04 13:07:11 | 54.70040 | 31.89928 | 0° | 0km/h | 1015m | 0.0m/s | -11.0°C | 0% | 0hPa | 0V | 00:00:00 | 00:00:00 | 00:00:00 | |
| LY3OO-11 | 2026-09-04 13:06:50 | 54.70040 | 31.89928 | 0° | 0km/h | 1015m | 0.0m/s | -13.5°C | 0% | 0hPa | 0V | 00:00:00 | 00:00:00 | 00:00:00 | |
| LY3OO-11 | 2026-09-04 13:06:30 | 54.70040 | 31.89928 | 0° | 0km/h | 1015m | 0.0m/s | -13.9°C | 68.2% | 0hPa | 0V | 00:00:00 | 00:00:00 | 00:00:00 | |
| LY3OO-11 | 2026-09-04 13:06:09 | 54.70040 | 31.89928 | 0° | 0km/h | 1015m | 0.0m/s | -16.7°C | 75.3% | 0hPa | 0V | 00:00:00 | 00:00:00 | 00:00:00 | |
| LY3OO-11 | 2026-09-04 13:05:49 | 55.01606 | 24.68460 | 0° | 0km/h | 154m | 0.0m/s | -18.9°C | 69.1% | 0hPa | 0V | 00:00:00 | 00:00:00 | 00:00:00 | |
| LY3OO-11 | 2026-09-04 13:05:28 | 54.70040 | 31.89928 | 0° | 0km/h | 1015m | 0.0m/s | -21.8°C | 45.2% | 0hPa | 0V | 00:00:00 | 00:00:00 | 00:00:00 | |
| LY3OO-11 | 2026-09-04 13:05:08 | 54.70040 | 31.89928 | 0° | 0km/h | 1015m | 0.0m/s | -23.0°C | 78.5% | 0hPa | 0V | 00:00:00 | 00:00:00 | 00:00:00 | |
| LY3OO-11 | 2026-09-04 13:04:48 | 54.70040 | 31.89928 | 0° | 0km/h | 1015m | 0.0m/s | -24.7°C | 72.6% | 0hPa | 0V | 00:00:00 | 00:00:00 | 00:00:00 | |
| LY3OO-11 | 2026-09-04 13:04:27 | 54.70314 | 31.89944 | 0° | 0km/h | 1067m | 0.0m/s | -26.8°C | 59.7% | 0hPa | 0V | 00:00:00 | 00:00:00 | 00:00:00 | |
| LY3OO-11 | 2026-09-04 13:04:06 | 54.70314 | 31.89944 | 0° | 0km/h | 1067m | 0.0m/s | -29.5°C | 56.3% | 0hPa | 0V | 00:00:00 | 00:00:00 | 00:00:00 | |
| LY3OO-11 | 2026-09-04 13:03:45 | 54.70314 | 31.89944 | 0° | 0km/h | 1067m | 0.0m/s | -32.7°C | 59.8% | 0hPa | 0V | 00:00:00 | 00:00:00 | 00:00:00 | |
| LY3OO-11 | 2026-09-04 13:03:24 | 54.70314 | 31.89944 | 0° | 0km/h | 1067m | 0.0m/s | -36.0°C | 65.0% | 0hPa | 0V | 00:00:00 | 00:00:00 | 00:00:00 | |
| LY3OO-11 | 2026-09-04 13:03:04 | 54.70314 | 31.89944 | 0° | 0km/h | 1067m | 0.0m/s | -38.7°C | 48.8% | 0hPa | 0V | 00:00:00 | 00:00:00 | 00:00:00 | |
| LY3OO-11 | 2026-09-04 13:02:43 | 54.70314 | 31.89944 | 0° | 0km/h | 1067m | 0.0m/s | -41.9°C | 56.4% | 0hPa | 0V | 00:00:00 | 00:00:00 | 00:00:00 | |
| LY3OO-11 | 2026-09-04 13:02:22 | 54.70264 | 31.89942 | 3° | 99km/h | 1058m | 4.8m/s | -45.5°C | 57.4% | 0hPa | 0V | 00:00:00 | 00:00:00 | 00:00:00 | |
| LY3OO-11 | 2026-09-04 13:01:59 | 54.69703 | 31.90019 | 338° | 104km/h | 993m | 0.6m/s | -50.1°C | 55.1% | 0hPa | 0V | 00:00:00 | 00:00:00 | 00:00:00 | |
| LY3OO-11 | 2026-09-04 13:01:38 | 54.69301 | 31.90562 | 305° | 100km/h | 986m | -0.5m/s | -54.6°C | 49.9% | 0hPa | 0V | 00:00:00 | 00:00:00 | 00:00:00 | |
| LY3OO-11 | 2026-09-04 13:01:18 | 54.69135 | 31.91411 | 273° | 99km/h | 977m | 0.8m/s | -57.6°C | 36.6% | 0hPa | 0V | 00:00:00 | 00:00:00 | 00:00:00 | |
| LY3OO-11 | 2026-09-04 13:00:56 | 54.69261 | 31.92276 | 240° | 99km/h | 981m | 0.1m/s | -59.3°C | 15.4% | 0hPa | 0V | 00:00:00 | 00:00:00 | 00:00:00 | |
| LY3OO-11 | 2026-09-04 13:00:36 | 54.69625 | 31.92852 | 208° | 99km/h | 985m | -0.3m/s | -55.2°C | 5.0% | 0hPa | 0V | 00:00:00 | 00:00:00 | 00:00:00 | |
| LY3OO-11 | 2026-09-04 13:00:17 | 54.70134 | 31.93009 | 174° | 99km/h | 986m | 0.3m/s | -52.0°C | 3.6% | 0hPa | 0V | 00:00:00 | 00:00:00 | 00:00:00 | |
| LY3OO-11 | 2026-09-04 12:59:55 | 54.70590 | 31.92682 | 143° | 99km/h | 982m | 0.3m/s | -52.7°C | 3.8% | 0hPa | 0V | 00:00:00 | 00:00:00 | 00:00:00 | |
| LY3OO-11 | 2026-09-04 12:59:35 | 54.70881 | 31.92000 | 109° | 99km/h | 975m | 0.7m/s | -52.0°C | 3.6% | 0hPa | 0V | 00:00:00 | 00:00:00 | 00:00:00 | |
| LY3OO-11 | 2026-09-04 12:59:14 | 54.70899 | 31.91104 | 76° | 102km/h | 976m | 0.9m/s | -51.2°C | 3.4% | 0hPa | 0V | 00:00:00 | 00:00:00 | 00:00:00 | |
| LY3OO-11 | 2026-09-04 12:58:53 | 54.70645 | 31.90340 | 44° | 99km/h | 973m | 0.2m/s | -51.2°C | 3.3% | 0hPa | 0V | 00:00:00 | 00:00:00 | 00:00:00 | |
| LY3OO-11 | 2026-09-04 12:58:32 | 54.70177 | 31.89939 | 10° | 99km/h | 977m | -0.6m/s | -50.9°C | 3.1% | 0hPa | 0V | 00:00:00 | 00:00:00 | 00:00:00 | |
| LY3OO-11 | 2026-09-04 12:58:12 | 54.69691 | 31.90038 | 339° | 100km/h | 973m | -0.1m/s | -52.0°C | 3.6% | 0hPa | 0V | 00:00:00 | 00:00:00 | 00:00:00 | |
| LY3OO-11 | 2026-09-04 12:57:52 | 54.69296 | 31.90606 | 306° | 99km/h | 981m | 0.4m/s | -49.6°C | 3.0% | 0hPa | 0V | 00:00:00 | 00:00:00 | 00:00:00 | |
| LY3OO-11 | 2026-09-04 12:57:31 | 54.69141 | 31.91451 | 272° | 97km/h | 988m | 0.5m/s | -51.2°C | 3.4% | 0hPa | 0V | 00:00:00 | 00:00:00 | 00:00:00 | |
| LY3OO-11 | 2026-09-04 12:57:11 | 54.69273 | 31.92269 | 240° | 99km/h | 995m | 0.2m/s | -49.9°C | 3.0% | 0hPa | 0V | 00:00:00 | 00:00:00 | 00:00:00 | |
| LY3OO-11 | 2026-09-04 12:56:50 | 54.69644 | 31.92865 | 207° | 97km/h | 986m | 0.9m/s | -50.9°C | 3.2% | 0hPa | 0V | 00:00:00 | 00:00:00 | 00:00:00 | |
| LY3OO-11 | 2026-09-04 12:56:29 | 54.70149 | 31.93000 | 173° | 99km/h | 975m | 0.2m/s | -51.2°C | 3.3% | 0hPa | 0V | 00:00:00 | 00:00:00 | 00:00:00 | |
| LY3OO-11 | 2026-09-04 12:56:08 | 54.70608 | 31.92659 | 141° | 99km/h | 988m | -0.2m/s | -51.1°C | 3.3% | 0hPa | 0V | 00:00:00 | 00:00:00 | 00:00:00 | |
| LY3OO-11 | 2026-09-04 12:55:48 | 54.70893 | 31.91915 | 108° | 99km/h | 992m | -0.1m/s | -51.3°C | 3.4% | 0hPa | 0V | 00:00:00 | 00:00:00 | 00:00:00 | |
| LY3OO-11 | 2026-09-04 12:55:27 | 54.70898 | 31.91068 | 76° | 99km/h | 982m | 0.6m/s | -51.7°C | 3.7% | 0hPa | 0V | 00:00:00 | 00:00:00 | 00:00:00 | |
| LY3OO-11 | 2026-09-04 12:55:07 | 54.70645 | 31.90336 | 44° | 99km/h | 981m | -0.2m/s | -49.9°C | 3.2% | 0hPa | 0V | 00:00:00 | 00:00:00 | 00:00:00 | |
| LY3OO-11 | 2026-09-04 12:54:47 | 54.70206 | 31.89951 | 12° | 99km/h | 988m | 0.3m/s | -49.3°C | 3.1% | 0hPa | 0V | 00:00:00 | 00:00:00 | 00:00:00 | |
| LY3OO-11 | 2026-09-04 12:54:26 | 54.69691 | 31.90043 | 339° | 99km/h | 983m | 0.8m/s | -49.7°C | 3.4% | 0hPa | 0V | 00:00:00 | 00:00:00 | 00:00:00 | |
| LY3OO-11 | 2026-09-04 12:54:05 | 54.69288 | 31.90602 | 307° | 99km/h | 978m | 0.9m/s | -47.9°C | 3.2% | 0hPa | 0V | 00:00:00 | 00:00:00 | 00:00:00 | |
| LY3OO-11 | 2026-09-04 12:53:44 | 54.69132 | 31.91433 | 272° | 99km/h | 974m | 0.0m/s | -46.0°C | 2.8% | 0hPa | 0V | 00:00:00 | 00:00:00 | 00:00:00 | |
| LY3OO-11 | 2026-09-04 12:53:24 | 54.69259 | 31.92241 | 241° | 97km/h | 971m | 0.1m/s | -44.3°C | 2.6% | 0hPa | 0V | 00:00:00 | 00:00:00 | 00:00:00 | |
| LY3OO-11 | 2026-09-04 12:53:04 | 54.69628 | 31.92868 | 207° | 99km/h | 960m | 0.2m/s | -44.4°C | 2.7% | 0hPa | 0V | 00:00:00 | 00:00:00 | 00:00:00 | |
| LY3OO-11 | 2026-09-04 12:52:43 | 54.70124 | 31.93014 | 175° | 99km/h | 987m | -0.5m/s | -44.9°C | 2.8% | 0hPa | 0V | 00:00:00 | 00:00:00 | 00:00:00 | |
| LY3OO-11 | 2026-09-04 12:52:23 | 54.70577 | 31.92696 | 143° | 99km/h | 976m | -0.1m/s | -45.0°C | 2.7% | 0hPa | 0V | 00:00:00 | 00:00:00 | 00:00:00 | |
| LY3OO-11 | 2026-09-04 12:52:03 | 54.70877 | 31.91963 | 109° | 99km/h | 980m | 0.7m/s | -45.9°C | 2.8% | 0hPa | 0V | 00:00:00 | 00:00:00 | 00:00:00 | |
| LY3OO-11 | 2026-09-04 12:51:42 | 54.70895 | 31.91058 | 76° | 99km/h | 974m | -0.1m/s | -46.1°C | 3.0% | 0hPa | 0V | 00:00:00 | 00:00:00 | 00:00:00 | |
| LY3OO-11 | 2026-09-04 12:51:21 | 54.70679 | 31.90232 | 19° | 106km/h | 977m | 4.1m/s | -46.4°C | 3.0% | 0hPa | 0V | 00:00:00 | 00:00:00 | 00:00:00 | |
| LY3OO-11 | 2026-09-04 12:51:01 | 54.70173 | 31.89935 | 11° | 97km/h | 934m | 0.2m/s | -46.9°C | 3.1% | 0hPa | 0V | 00:00:00 | 00:00:00 | 00:00:00 | |
| LY3OO-11 | 2026-09-04 12:50:40 | 54.69692 | 31.90018 | 338° | 97km/h | 961m | -1.5m/s | -47.1°C | 3.0% | 0hPa | 0V | 00:00:00 | 00:00:00 | 00:00:00 | |
| LY3OO-11 | 2026-09-04 12:50:20 | 54.69290 | 31.90580 | 306° | 99km/h | 951m | -0.0m/s | -47.3°C | 3.0% | 0hPa | 0V | 00:00:00 | 00:00:00 | 00:00:00 | |
| LY3OO-11 | 2026-09-04 12:49:59 | 54.69121 | 31.91422 | 272° | 99km/h | 957m | -0.4m/s | -47.3°C | 3.1% | 0hPa | 0V | 00:00:00 | 00:00:00 | 00:00:00 | |
| LY3OO-11 | 2026-09-04 12:49:38 | 54.69262 | 31.92284 | 239° | 99km/h | 944m | 0.2m/s | -47.2°C | 3.0% | 0hPa | 0V | 00:00:00 | 00:00:00 | 00:00:00 | |
| LY3OO-11 | 2026-09-04 12:49:18 | 54.69625 | 31.92851 | 208° | 100km/h | 948m | 0.6m/s | -47.3°C | 3.0% | 0hPa | 0V | 00:00:00 | 00:00:00 | 00:00:00 | |
| LY3OO-11 | 2026-09-04 12:48:56 | 54.70147 | 31.92993 | 173° | 97km/h | 953m | 2.2m/s | -47.5°C | 3.0% | 0hPa | 0V | 00:00:00 | 00:00:00 | 00:00:00 | |
| LY3OO-11 | 2026-09-04 12:48:35 | 54.70625 | 31.92646 | 141° | 99km/h | 990m | -0.2m/s | -48.1°C | 3.1% | 0hPa | 0V | 00:00:00 | 00:00:00 | 00:00:00 | |
| LY3OO-11 | 2026-09-04 12:48:14 | 54.70881 | 31.91885 | 107° | 99km/h | 954m | -0.2m/s | -48.4°C | 3.3% | 0hPa | 0V | 00:00:00 | 00:00:00 | 00:00:00 | |
| LY3OO-11 | 2026-09-04 12:47:54 | 54.70882 | 31.90992 | 73° | 99km/h | 961m | 0.0m/s | -48.5°C | 3.2% | 0hPa | 0V | 00:00:00 | 00:00:00 | 00:00:00 | |
| LY3OO-11 | 2026-09-04 12:47:32 | 54.70592 | 31.90260 | 40° | 100km/h | 958m | 0.8m/s | -48.3°C | 3.2% | 0hPa | 0V | 00:00:00 | 00:00:00 | 00:00:00 | |
| LY3OO-11 | 2026-09-04 12:47:12 | 54.70113 | 31.89909 | 7° | 97km/h | 949m | 0.2m/s | -48.5°C | 3.1% | 0hPa | 0V | 00:00:00 | 00:00:00 | 00:00:00 | |
| LY3OO-11 | 2026-09-04 12:46:52 | 54.69630 | 31.90075 | 335° | 99km/h | 965m | 0.5m/s | -48.2°C | 3.0% | 0hPa | 0V | 00:00:00 | 00:00:00 | 00:00:00 | |
| LY3OO-11 | 2026-09-04 12:46:32 | 54.69269 | 31.90645 | 303° | 99km/h | 988m | -0.7m/s | -48.6°C | 3.1% | 0hPa | 0V | 00:00:00 | 00:00:00 | 00:00:00 | |
| LY3OO-11 | 2026-09-04 12:46:11 | 54.69118 | 31.91499 | 271° | 97km/h | 963m | 1.1m/s | -49.0°C | 3.2% | 0hPa | 0V | 00:00:00 | 00:00:00 | 00:00:00 | |
| LY3OO-11 | 2026-09-04 12:45:50 | 54.69285 | 31.92356 | 236° | 99km/h | 958m | 0.3m/s | -49.4°C | 3.4% | 0hPa | 0V | 00:00:00 | 00:00:00 | 00:00:00 | |
| LY3OO-11 | 2026-09-04 12:45:29 | 54.69699 | 31.92911 | 203° | 99km/h | 977m | 0.1m/s | -49.7°C | 3.4% | 0hPa | 0V | 00:00:00 | 00:00:00 | 00:00:00 | |
| LY3OO-11 | 2026-09-04 12:45:09 | 54.70193 | 31.93003 | 170° | 99km/h | 979m | 0.6m/s | -50.1°C | 3.5% | 0hPa | 0V | 00:00:00 | 00:00:00 | 00:00:00 | |
| LY3OO-11 | 2026-09-04 12:44:48 | 54.70636 | 31.92620 | 139° | 99km/h | 976m | 0.0m/s | -50.0°C | 3.4% | 0hPa | 0V | 00:00:00 | 00:00:00 | 00:00:00 | |
| LY3OO-11 | 2026-09-04 12:44:28 | 54.70901 | 31.91813 | 104° | 99km/h | 963m | 0.0m/s | -50.5°C | 3.5% | 0hPa | 0V | 00:00:00 | 00:00:00 | 00:00:00 | |
| LY3OO-11 | 2026-09-04 12:44:07 | 54.70874 | 31.90964 | 72° | 99km/h | 974m | 0.0m/s | -50.0°C | 3.4% | 0hPa | 0V | 00:00:00 | 00:00:00 | 00:00:00 | |
| LY3OO-11 | 2026-09-04 12:43:46 | 54.70567 | 31.90250 | 39° | 99km/h | 945m | 0.7m/s | -49.7°C | 3.2% | 0hPa | 0V | 00:00:00 | 00:00:00 | 00:00:00 | |
| LY3OO-11 | 2026-09-04 12:43:25 | 54.70112 | 31.89919 | 6° | 99km/h | 971m | -1.6m/s | -49.3°C | 3.4% | 0hPa | 0V | 00:00:00 | 00:00:00 | 00:00:00 | |
| LY3OO-11 | 2026-09-04 12:43:05 | 54.69606 | 31.90088 | 333° | 99km/h | 970m | 0.3m/s | -49.6°C | 2.9% | 0hPa | 0V | 00:00:00 | 00:00:00 | 00:00:00 | |
| LY3OO-11 | 2026-09-04 12:42:44 | 54.69235 | 31.90700 | 300° | 99km/h | 954m | 0.2m/s | -50.1°C | 3.3% | 0hPa | 0V | 00:00:00 | 00:00:00 | 00:00:00 | |
| LY3OO-11 | 2026-09-04 12:42:24 | 54.69122 | 31.91542 | 268° | 100km/h | 941m | 0.8m/s | -50.3°C | 3.5% | 0hPa | 0V | 00:00:00 | 00:00:00 | 00:00:00 | |
| LY3OO-11 | 2026-09-04 12:42:04 | 54.69289 | 31.92353 | 237° | 99km/h | 955m | -1.1m/s | -50.0°C | 3.5% | 0hPa | 0V | 00:00:00 | 00:00:00 | 00:00:00 | |
| LY3OO-11 | 2026-09-04 12:41:43 | 54.69724 | 31.92909 | 201° | 99km/h | 967m | -1.1m/s | -49.8°C | 3.3% | 0hPa | 0V | 00:00:00 | 00:00:00 | 00:00:00 | |
| LY3OO-11 | 2026-09-04 12:41:22 | 54.70192 | 31.92990 | 171° | 99km/h | 965m | -0.1m/s | -50.0°C | 3.3% | 0hPa | 0V | 00:00:00 | 00:00:00 | 00:00:00 | |
| LY3OO-11 | 2026-09-04 12:41:02 | 54.70657 | 31.92582 | 139° | 100km/h | 956m | -0.5m/s | -50.1°C | 3.3% | 0hPa | 0V | 00:00:00 | 00:00:00 | 00:00:00 | |
| LY3OO-11 | 2026-09-04 12:40:20 | 54.70866 | 31.90928 | 70° | 99km/h | 966m | -0.6m/s | -50.8°C | 3.5% | 0hPa | 0V | 00:00:00 | 00:00:00 | 00:00:00 | |
| LY3OO-11 | 2026-09-04 12:39:59 | 54.70553 | 31.90207 | 37° | 99km/h | 975m | 0.4m/s | -50.7°C | 3.4% | 0hPa | 0V | 00:00:00 | 00:00:00 | 00:00:00 | |
| LY3OO-11 | 2026-09-04 12:39:39 | 54.70099 | 31.89924 | 6° | 100km/h | 975m | -0.3m/s | -51.0°C | 3.5% | 0hPa | 0V | 00:00:00 | 00:00:00 | 00:00:00 | |
| LY3OO-11 | 2026-09-04 12:39:19 | 54.69608 | 31.90085 | 334° | 99km/h | 934m | 0.6m/s | -50.4°C | 3.2% | 0hPa | 0V | 00:00:00 | 00:00:00 | 00:00:00 | |
| LY3OO-11 | 2026-09-04 12:38:58 | 54.69236 | 31.90703 | 300° | 97km/h | 949m | -0.5m/s | -50.3°C | 3.3% | 0hPa | 0V | 00:00:00 | 00:00:00 | 00:00:00 | |
| LY3OO-11 | 2026-09-04 12:38:38 | 54.69123 | 31.91530 | 269° | 99km/h | 949m | -0.1m/s | -51.5°C | 3.4% | 0hPa | 0V | 00:00:00 | 00:00:00 | 00:00:00 | |
| LY3OO-11 | 2026-09-04 12:38:18 | 54.69283 | 31.92335 | 237° | 99km/h | 955m | 0.5m/s | -52.0°C | 3.8% | 0hPa | 0V | 00:00:00 | 00:00:00 | 00:00:00 | |
| LY3OO-11 | 2026-09-04 12:37:58 | 54.69663 | 31.92881 | 205° | 99km/h | 974m | 0.3m/s | -52.0°C | 3.6% | 0hPa | 0V | 00:00:00 | 00:00:00 | 00:00:00 | |
| LY3OO-11 | 2026-09-04 12:37:37 | 54.70169 | 31.92977 | 171° | 99km/h | 967m | 0.5m/s | -52.5°C | 3.7% | 0hPa | 0V | 00:00:00 | 00:00:00 | 00:00:00 | |
| LY3OO-11 | 2026-09-04 12:37:17 | 54.70621 | 31.92620 | 139° | 99km/h | 952m | 0.2m/s | -52.7°C | 3.8% | 0hPa | 0V | 00:00:00 | 00:00:00 | 00:00:00 | |
| LY3OO-11 | 2026-09-04 12:36:56 | 54.70896 | 31.91863 | 105° | 99km/h | 945m | 0.4m/s | -52.6°C | 3.4% | 0hPa | 0V | 00:00:00 | 00:00:00 | 00:00:00 | |
| LY3OO-11 | 2026-09-04 12:36:35 | 54.70864 | 31.91013 | 74° | 99km/h | 943m | 0.4m/s | -52.3°C | 3.6% | 0hPa | 0V | 00:00:00 | 00:00:00 | 00:00:00 | |
| LY3OO-11 | 2026-09-04 12:36:15 | 54.70585 | 31.90265 | 41° | 99km/h | 966m | 0.8m/s | -52.4°C | 3.6% | 0hPa | 0V | 00:00:00 | 00:00:00 | 00:00:00 | |
| LY3OO-11 | 2026-09-04 12:35:53 | 54.70121 | 31.89915 | 7° | 99km/h | 972m | 0.1m/s | -52.3°C | 3.7% | 0hPa | 0V | 00:00:00 | 00:00:00 | 00:00:00 | |
| LY3OO-11 | 2026-09-04 12:35:32 | 54.69620 | 31.90086 | 334° | 99km/h | 963m | 0.5m/s | -51.8°C | 3.3% | 0hPa | 0V | 00:00:00 | 00:00:00 | 00:00:00 | |
| LY3OO-11 | 2026-09-04 12:35:12 | 54.69255 | 31.90653 | 302° | 99km/h | 965m | -0.0m/s | -51.3°C | 3.5% | 0hPa | 0V | 00:00:00 | 00:00:00 | 00:00:00 | |
| LY3OO-11 | 2026-09-04 12:34:52 | 54.69126 | 31.91519 | 268° | 99km/h | 948m | 0.9m/s | -51.6°C | 3.7% | 0hPa | 0V | 00:00:00 | 00:00:00 | 00:00:00 | |
| LY3OO-11 | 2026-09-04 12:34:31 | 54.69293 | 31.92368 | 235° | 99km/h | 956m | 0.4m/s | -51.4°C | 3.6% | 0hPa | 0V | 00:00:00 | 00:00:00 | 00:00:00 | |
| LY3OO-11 | 2026-09-04 12:34:11 | 54.69680 | 31.92894 | 203° | 99km/h | 968m | -0.0m/s | -50.9°C | 3.4% | 0hPa | 0V | 00:00:00 | 00:00:00 | 00:00:00 | |
| LY3OO-11 | 2026-09-04 12:33:50 | 54.70184 | 31.93003 | 172° | 100km/h | 963m | 0.5m/s | -51.3°C | 3.6% | 0hPa | 0V | 00:00:00 | 00:00:00 | 00:00:00 | |
| LY3OO-11 | 2026-09-04 12:33:30 | 54.70623 | 31.92640 | 139° | 99km/h | 961m | 0.6m/s | -51.1°C | 3.7% | 0hPa | 0V | 00:00:00 | 00:00:00 | 00:00:00 | |
| LY3OO-11 | 2026-09-04 12:33:10 | 54.70886 | 31.91916 | 108° | 99km/h | 960m | -0.1m/s | -51.7°C | 3.7% | 0hPa | 0V | 00:00:00 | 00:00:00 | 00:00:00 | |
| LY3OO-11 | 2026-09-04 12:32:50 | 54.70893 | 31.91017 | 75° | 99km/h | 968m | 0.1m/s | -51.8°C | 3.1% | 0hPa | 0V | 00:00:00 | 00:00:00 | 00:00:00 | |
| LY3OO-11 | 2026-09-04 12:32:29 | 54.70596 | 31.90265 | 41° | 99km/h | 947m | 0.6m/s | -52.1°C | 3.6% | 0hPa | 0V | 00:00:00 | 00:00:00 | 00:00:00 | |
| LY3OO-11 | 2026-09-04 12:32:08 | 54.70119 | 31.89912 | 8° | 99km/h | 944m | 0.1m/s | -53.0°C | 3.9% | 0hPa | 0V | 00:00:00 | 00:00:00 | 00:00:00 | |
| LY3OO-11 | 2026-09-04 12:31:47 | 54.69607 | 31.90085 | 335° | 99km/h | 977m | 0.3m/s | -52.2°C | 4.0% | 0hPa | 0V | 00:00:00 | 00:00:00 | 00:00:00 | |
| LY3OO-11 | 2026-09-04 12:31:26 | 54.69241 | 31.90693 | 300° | 99km/h | 978m | -0.0m/s | -51.9°C | 3.9% | 0hPa | 0V | 00:00:00 | 00:00:00 | 00:00:00 | |
| LY3OO-11 | 2026-09-04 12:31:05 | 54.69123 | 31.91508 | 269° | 99km/h | 969m | -0.4m/s | -51.9°C | 3.5% | 0hPa | 0V | 00:00:00 | 00:00:00 | 00:00:00 | |
| LY3OO-11 | 2026-09-04 12:30:46 | 54.69273 | 31.92323 | 237° | 97km/h | 967m | 0.5m/s | -51.8°C | 3.2% | 0hPa | 0V | 00:00:00 | 00:00:00 | 00:00:00 | |
| LY3OO-11 | 2026-09-04 12:30:24 | 54.69683 | 31.92889 | 203° | 97km/h | 974m | 1.4m/s | -51.7°C | 3.6% | 0hPa | 0V | 00:00:00 | 00:00:00 | 00:00:00 | |
| LY3OO-11 | 2026-09-04 12:30:04 | 54.70201 | 31.92976 | 170° | 100km/h | 971m | -0.5m/s | -51.8°C | 3.1% | 0hPa | 0V | 00:00:00 | 00:00:00 | 00:00:00 | |
| LY3OO-11 | 2026-09-04 12:29:43 | 54.70652 | 31.92564 | 137° | 99km/h | 967m | 0.4m/s | -51.7°C | 3.6% | 0hPa | 0V | 00:00:00 | 00:00:00 | 00:00:00 | |
| LY3OO-11 | 2026-09-04 12:29:22 | 54.70907 | 31.91792 | 103° | 99km/h | 970m | 1.2m/s | -51.1°C | 3.2% | 0hPa | 0V | 00:00:00 | 00:00:00 | 00:00:00 | |
| LY3OO-11 | 2026-09-04 12:29:02 | 54.70877 | 31.90945 | 72° | 99km/h | 983m | -0.5m/s | -50.8°C | 3.2% | 0hPa | 0V | 00:00:00 | 00:00:00 | 00:00:00 | |
| LY3OO-11 | 2026-09-04 12:28:41 | 54.70584 | 31.90253 | 33° | 99km/h | 977m | -0.1m/s | -50.8°C | 3.1% | 0hPa | 0V | 00:00:00 | 00:00:00 | 00:00:00 | |
| LY3OO-11 | 2026-09-04 12:28:22 | 53.46499 | 26.79182 | 0° | 0km/h | 154m | 0.0m/s | -51.3°C | 3.6% | 0hPa | 0V | 00:00:00 | 00:00:00 | 00:00:00 | |
| LY3OO-11 | 2026-09-04 12:28:01 | 52.98742 | 30.51061 | 0° | 0km/h | 215m | 0.0m/s | -51.5°C | 4.0% | 0hPa | 0V | 00:00:00 | 00:00:00 | 00:00:00 | |
| LY3OO-11 | 2026-09-04 12:27:40 | 52.55668 | 33.50008 | 0° | 0km/h | 212m | 0.0m/s | -50.7°C | 3.4% | 0hPa | 0V | 00:00:00 | 00:00:00 | 00:00:00 | |
| LY3OO-11 | 2026-09-04 12:27:20 | 53.16928 | 32.66884 | 0° | 0km/h | 212m | 0.0m/s | -50.5°C | 3.8% | 0hPa | 0V | 00:00:00 | 00:00:00 | 00:00:00 | |
| LY3OO-11 | 2026-09-04 12:26:59 | 53.21739 | 35.14287 | 0° | 0km/h | 210m | 0.0m/s | -50.8°C | 3.8% | 0hPa | 0V | 00:00:00 | 00:00:00 | 00:00:00 | |
| LY3OO-11 | 2026-09-04 12:26:39 | 53.21739 | 35.14287 | 0° | 0km/h | 210m | 0.0m/s | -50.9°C | 3.8% | 0hPa | 0V | 00:00:00 | 00:00:00 | 00:00:00 | |
| LY3OO-11 | 2026-09-04 12:26:19 | 53.37386 | 30.25341 | 0° | 0km/h | 215m | 0.0m/s | -50.8°C | 3.7% | 0hPa | 0V | 00:00:00 | 00:00:00 | 00:00:00 | |
| LY3OO-11 | 2026-09-04 12:25:58 | 53.71359 | 30.21548 | 0° | 0km/h | 215m | 0.0m/s | -51.4°C | 3.4% | 0hPa | 0V | 00:00:00 | 00:00:00 | 00:00:00 | |
| LY3OO-11 | 2026-09-04 12:25:38 | 53.71359 | 30.21548 | 0° | 0km/h | 215m | 0.0m/s | -51.6°C | 3.6% | 0hPa | 0V | 00:00:00 | 00:00:00 | 00:00:00 | |
| LY3OO-11 | 2026-09-04 12:25:17 | 57.17280 | 44.56575 | 0° | 0km/h | 134m | 0.0m/s | -51.9°C | 4.0% | 0hPa | 0V | 00:00:00 | 00:00:00 | 00:00:00 | |
| LY3OO-11 | 2026-09-04 12:24:56 | 57.17280 | 44.56575 | 0° | 0km/h | 134m | 0.0m/s | -51.6°C | 3.8% | 0hPa | 0V | 00:00:00 | 00:00:00 | 00:00:00 | |
| LY3OO-11 | 2026-09-04 12:24:36 | 49.73512 | 8.05309 | 0° | 0km/h | 12408m | 0.0m/s | -51.8°C | 1.4% | 0hPa | 0V | 00:00:00 | 00:00:00 | 00:00:00 | |
| LY3OO-11 | 2026-09-04 12:24:15 | 62.42189 | 46.03059 | 0° | 0km/h | 73m | 0.0m/s | -51.6°C | 4.0% | 0hPa | 0V | 00:00:00 | 00:00:00 | 00:00:00 | |
| LY3OO-11 | 2026-09-04 12:23:55 | 62.42189 | 46.03059 | 0° | 0km/h | 73m | 0.0m/s | -50.8°C | 3.5% | 0hPa | 0V | 00:00:00 | 00:00:00 | 00:00:00 | |
| LY3OO-11 | 2026-09-04 12:23:34 | 62.42189 | 46.03059 | 0° | 0km/h | 73m | 0.0m/s | -50.8°C | 3.6% | 0hPa | 0V | 00:00:00 | 00:00:00 | 00:00:00 | |
| LY3OO-11 | 2026-09-04 12:23:14 | 62.42189 | 46.03059 | 0° | 0km/h | 73m | 0.0m/s | -50.4°C | 3.5% | 0hPa | 0V | 00:00:00 | 00:00:00 | 00:00:00 | |
| LY3OO-11 | 2026-09-04 12:22:54 | 65.14772 | 64.31817 | 0° | 0km/h | 17581m | 0.0m/s | -49.9°C | 1.0% | 0hPa | 0V | 00:00:00 | 00:00:00 | 00:00:00 | |
| LY3OO-11 | 2026-09-04 12:22:33 | 54.60045 | 24.99784 | 0° | 0km/h | 17300m | 0.0m/s | -50.0°C | 1.2% | 0hPa | 0V | 00:00:00 | 00:00:00 | 00:00:00 | |
| LY3OO-11 | 2026-09-04 12:22:12 | 54.60045 | 24.99784 | 0° | 0km/h | 17300m | 0.0m/s | -49.7°C | 0.9% | 0hPa | 0V | 00:00:00 | 00:00:00 | 00:00:00 | |
| LY3OO-11 | 2026-09-04 12:21:52 | 54.60064 | 24.99389 | 95° | 47km/h | 17204m | 5.3m/s | -50.0°C | 0.9% | 0hPa | 0V | 00:00:00 | 00:00:00 | 00:00:00 | |
| LY3OO-11 | 2026-09-04 12:21:31 | 54.60096 | 24.98952 | 99° | 44km/h | 17095m | 5.2m/s | -50.7°C | 0.8% | 0hPa | 0V | 00:00:00 | 00:00:00 | 00:00:00 | |
| LY3OO-11 | 2026-09-04 12:21:10 | 54.60153 | 24.98514 | 105° | 51km/h | 16980m | 7.3m/s | -50.5°C | 1.0% | 0hPa | 0V | 00:00:00 | 00:00:00 | 00:00:00 | |
| LY3OO-11 | 2026-09-04 12:20:49 | 54.60209 | 24.98018 | 99° | 66km/h | 16865m | 7.0m/s | -50.8°C | 1.2% | 0hPa | 0V | 00:00:00 | 00:00:00 | 00:00:00 | |
| LY3OO-11 | 2026-09-04 12:20:29 | 54.60244 | 24.97514 | 104° | 58km/h | 16752m | 6.9m/s | -51.6°C | 1.1% | 0hPa | 0V | 00:00:00 | 00:00:00 | 00:00:00 | |
| LY3OO-11 | 2026-09-04 12:20:08 | 54.60267 | 24.96992 | 86° | 60km/h | 16639m | 3.8m/s | -51.8°C | 1.1% | 0hPa | 0V | 00:00:00 | 00:00:00 | 00:00:00 | |
| LY3OO-11 | 2026-09-04 12:19:47 | 54.60244 | 24.96491 | 81° | 47km/h | 16531m | 4.7m/s | -51.8°C | 1.1% | 0hPa | 0V | 00:00:00 | 00:00:00 | 00:00:00 | |
| LY3OO-11 | 2026-09-04 12:19:26 | 54.60226 | 24.96115 | 92° | 33km/h | 16420m | 5.1m/s | -51.3°C | 1.2% | 0hPa | 0V | 00:00:00 | 00:00:00 | 00:00:00 | |
| LY3OO-11 | 2026-09-04 12:19:05 | 54.60260 | 24.95779 | 104° | 40km/h | 16303m | 4.2m/s | -50.7°C | 1.4% | 0hPa | 0V | 00:00:00 | 00:00:00 | 00:00:00 | |
| LY3OO-11 | 2026-09-04 12:18:45 | 54.60322 | 24.95442 | 99° | 35km/h | 16199m | 5.9m/s | -51.3°C | 1.2% | 0hPa | 0V | 00:00:00 | 00:00:00 | 00:00:00 | |
| LY3OO-11 | 2026-09-04 12:18:24 | 54.60377 | 24.95140 | 117° | 42km/h | 16081m | 5.1m/s | -50.9°C | 1.1% | 0hPa | 0V | 00:00:00 | 00:00:00 | 00:00:00 | |
| LY3OO-11 | 2026-09-04 12:18:03 | 54.60476 | 24.94807 | 139° | 40km/h | 15974m | 3.8m/s | -50.6°C | 1.1% | 0hPa | 0V | 00:00:00 | 00:00:00 | 00:00:00 | |
| LY3OO-11 | 2026-09-04 12:17:43 | 54.60590 | 24.94500 | 126° | 47km/h | 15870m | 5.8m/s | -49.9°C | 1.1% | 0hPa | 0V | 00:00:00 | 00:00:00 | 00:00:00 | |
| LY3OO-11 | 2026-09-04 12:17:02 | 54.60925 | 24.93683 | 121° | 58km/h | 15673m | 4.0m/s | -50.6°C | 1.2% | 0hPa | 0V | 00:00:00 | 00:00:00 | 00:00:00 | |
| LY3OO-11 | 2026-09-04 12:16:41 | 54.61046 | 24.93199 | 117° | 47km/h | 15562m | 4.8m/s | -50.9°C | 1.2% | 0hPa | 0V | 00:00:00 | 00:00:00 | 00:00:00 | |
| LY3OO-11 | 2026-09-04 12:16:21 | 54.61115 | 24.92662 | 93° | 60km/h | 15440m | 5.8m/s | -50.7°C | 1.2% | 0hPa | 0V | 00:00:00 | 00:00:00 | 00:00:00 | |
| LY3OO-11 | 2026-09-04 12:15:59 | 54.61151 | 24.92173 | 107° | 47km/h | 15314m | 9.2m/s | -50.8°C | 1.3% | 0hPa | 0V | 00:00:00 | 00:00:00 | 00:00:00 | |
| LY3OO-11 | 2026-09-04 12:15:38 | 54.61255 | 24.91717 | 115° | 60km/h | 15178m | 6.4m/s | -50.8°C | 1.2% | 0hPa | 0V | 00:00:00 | 00:00:00 | 00:00:00 | |
| LY3OO-11 | 2026-09-04 12:15:18 | 54.61375 | 24.91182 | 101° | 58km/h | 15036m | 5.4m/s | -51.1°C | 1.3% | 0hPa | 0V | 00:00:00 | 00:00:00 | 00:00:00 | |
| LY3OO-11 | 2026-09-04 12:14:57 | 54.61475 | 24.90590 | 106° | 82km/h | 14911m | 5.8m/s | -51.3°C | 1.5% | 0hPa | 0V | 00:00:00 | 00:00:00 | 00:00:00 | |
| LY3OO-11 | 2026-09-04 12:14:36 | 54.61562 | 24.89908 | 101° | 71km/h | 14779m | 7.6m/s | -51.8°C | 1.5% | 0hPa | 0V | 00:00:00 | 00:00:00 | 00:00:00 | |
| LY3OO-11 | 2026-09-04 12:14:16 | 54.61643 | 24.89250 | 100° | 69km/h | 14659m | 5.6m/s | -52.2°C | 1.5% | 0hPa | 0V | 00:00:00 | 00:00:00 | 00:00:00 | |
| LY3OO-11 | 2026-09-04 12:13:55 | 54.61655 | 24.88557 | 89° | 71km/h | 14513m | 5.7m/s | -52.4°C | 1.4% | 0hPa | 0V | 00:00:00 | 00:00:00 | 00:00:00 | |
| LY3OO-11 | 2026-09-04 12:13:35 | 54.61664 | 24.88000 | 88° | 58km/h | 14382m | 6.9m/s | -52.3°C | 1.7% | 0hPa | 0V | 00:00:00 | 00:00:00 | 00:00:00 | |
| LY3OO-11 | 2026-09-04 12:13:15 | 54.61719 | 24.87472 | 103° | 66km/h | 14262m | 5.0m/s | -51.9°C | 1.6% | 0hPa | 0V | 00:00:00 | 00:00:00 | 00:00:00 | |
| LY3OO-11 | 2026-09-04 12:12:54 | 54.61819 | 24.86950 | 99° | 51km/h | 14138m | 4.6m/s | -51.8°C | 1.6% | 0hPa | 0V | 00:00:00 | 00:00:00 | 00:00:00 | |
| LY3OO-11 | 2026-09-04 12:12:35 | 54.61980 | 24.86391 | 121° | 91km/h | 14020m | 7.1m/s | -51.1°C | 1.7% | 0hPa | 0V | 00:00:00 | 00:00:00 | 00:00:00 | |
| LY3OO-11 | 2026-09-04 12:12:14 | 54.62147 | 24.85698 | 106° | 84km/h | 13901m | 4.9m/s | -52.3°C | 1.8% | 0hPa | 0V | 00:00:00 | 00:00:00 | 00:00:00 | |
| LY3OO-11 | 2026-09-04 12:11:53 | 54.62271 | 24.84936 | 102° | 88km/h | 13780m | 5.0m/s | -52.7°C | 1.8% | 0hPa | 0V | 00:00:00 | 00:00:00 | 00:00:00 | |
| LY3OO-11 | 2026-09-04 12:11:34 | 54.62363 | 24.84200 | 108° | 77km/h | 13665m | 6.0m/s | -52.4°C | 1.8% | 0hPa | 0V | 00:00:00 | 00:00:00 | 00:00:00 | |
| LY3OO-11 | 2026-09-04 12:11:12 | 54.62497 | 24.83534 | 114° | 78km/h | 13549m | 3.3m/s | -52.4°C | 1.9% | 0hPa | 0V | 00:00:00 | 00:00:00 | 00:00:00 | |
| LY3OO-11 | 2026-09-04 12:10:51 | 54.62688 | 24.82920 | 119° | 68km/h | 13449m | 4.4m/s | -52.2°C | 2.0% | 0hPa | 0V | 00:00:00 | 00:00:00 | 00:00:00 | |
| LY3OO-11 | 2026-09-04 12:10:31 | 54.62857 | 24.82305 | 118° | 80km/h | 13332m | 5.2m/s | -52.3°C | 2.0% | 0hPa | 0V | 00:00:00 | 00:00:00 | 00:00:00 | |
| LY3OO-11 | 2026-09-04 12:10:10 | 54.63056 | 24.81642 | 118° | 88km/h | 13229m | 3.5m/s | -53.0°C | 2.1% | 0hPa | 0V | 00:00:00 | 00:00:00 | 00:00:00 | |
| LY3OO-11 | 2026-09-04 12:09:49 | 54.63286 | 24.80892 | 116° | 89km/h | 13124m | 3.4m/s | -53.5°C | 2.3% | 0hPa | 0V | 00:00:00 | 00:00:00 | 00:00:00 | |
| LY3OO-11 | 2026-09-04 12:09:29 | 54.63488 | 24.80181 | 121° | 95km/h | 13024m | 4.3m/s | -53.0°C | 2.4% | 0hPa | 0V | 00:00:00 | 00:00:00 | 00:00:00 | |
| LY3OO-11 | 2026-09-04 12:09:10 | 54.63730 | 24.79412 | 119° | 108km/h | 12916m | 4.6m/s | -54.1°C | 2.8% | 0hPa | 0V | 00:00:00 | 00:00:00 | 00:00:00 | |
| LY3OO-11 | 2026-09-04 12:08:48 | 54.63993 | 24.78445 | 110° | 119km/h | 12810m | 5.9m/s | -54.8°C | 3.2% | 0hPa | 0V | 00:00:00 | 00:00:00 | 00:00:00 | |
| LY3OO-11 | 2026-09-04 12:08:28 | 54.64194 | 24.77498 | 108° | 111km/h | 12691m | 6.4m/s | -55.6°C | 3.8% | 0hPa | 0V | 00:00:00 | 00:00:00 | 00:00:00 | |
| LY3OO-11 | 2026-09-04 12:08:07 | 54.64384 | 24.76559 | 112° | 106km/h | 12563m | 5.5m/s | -56.0°C | 4.5% | 0hPa | 0V | 00:00:00 | 00:00:00 | 00:00:00 | |
| LY3OO-11 | 2026-09-04 12:07:47 | 54.64636 | 24.75617 | 121° | 113km/h | 12456m | 6.2m/s | -55.7°C | 5.4% | 0hPa | 0V | 00:00:00 | 00:00:00 | 00:00:00 | |
| LY3OO-11 | 2026-09-04 12:07:26 | 54.64945 | 24.74708 | 123° | 122km/h | 12354m | 4.3m/s | -55.3°C | 7.5% | 0hPa | 0V | 00:00:00 | 00:00:00 | 00:00:00 | |
| LY3OO-11 | 2026-09-04 12:07:06 | 54.65309 | 24.73700 | 125° | 170km/h | 12233m | 9.1m/s | -56.3°C | 13.3% | 0hPa | 0V | 00:00:00 | 00:00:00 | 00:00:00 | |
| LY3OO-11 | 2026-09-04 12:06:46 | 54.65712 | 24.72424 | 119° | 164km/h | 12111m | 6.0m/s | -56.6°C | 15.7% | 0hPa | 0V | 00:00:00 | 00:00:00 | 00:00:00 | |
| LY3OO-11 | 2026-09-04 12:06:06 | 54.66516 | 24.69843 | 121° | 168km/h | 11909m | 5.8m/s | -57.0°C | 34.1% | 0hPa | 0V | 00:00:00 | 00:00:00 | 00:00:00 | |
| LY3OO-11 | 2026-09-04 12:05:44 | 54.66997 | 24.68632 | 132° | 161km/h | 11759m | 6.3m/s | -57.5°C | 50.8% | 0hPa | 0V | 00:00:00 | 00:00:00 | 00:00:00 | |
| LY3OO-11 | 2026-09-04 12:05:23 | 54.67592 | 24.67525 | 133° | 159km/h | 11627m | 8.6m/s | -57.5°C | 53.2% | 0hPa | 0V | 00:00:00 | 00:00:00 | 00:00:00 | |
| LY3OO-11 | 2026-09-04 12:05:03 | 54.68220 | 24.66380 | 135° | 192km/h | 11499m | 5.6m/s | -56.9°C | 59.0% | 0hPa | 0V | 00:00:00 | 00:00:00 | 00:00:00 | |
| LY3OO-11 | 2026-09-04 12:04:42 | 54.68978 | 24.65106 | 132° | 195km/h | 11367m | 5.4m/s | -56.1°C | 56.1% | 0hPa | 0V | 00:00:00 | 00:00:00 | 00:00:00 | |
| LY3OO-11 | 2026-09-04 12:04:21 | 54.69733 | 24.63773 | 136° | 203km/h | 11257m | 4.6m/s | -55.1°C | 58.3% | 0hPa | 0V | 00:00:00 | 00:00:00 | 00:00:00 | |
| LY3OO-11 | 2026-09-04 12:04:00 | 54.70508 | 24.62442 | 137° | 208km/h | 11148m | 4.4m/s | -54.1°C | 58.8% | 0hPa | 0V | 00:00:00 | 00:00:00 | 00:00:00 | |
| LY3OO-11 | 2026-09-04 12:03:40 | 54.71195 | 24.61158 | 135° | 206km/h | 11041m | 7.1m/s | -53.2°C | 58.3% | 0hPa | 0V | 00:00:00 | 00:00:00 | 00:00:00 | |
| LY3OO-11 | 2026-09-04 12:03:19 | 54.71946 | 24.59847 | 136° | 199km/h | 10913m | 6.0m/s | -52.0°C | 54.5% | 0hPa | 0V | 00:00:00 | 00:00:00 | 00:00:00 | |
| LY3OO-11 | 2026-09-04 12:02:58 | 54.72672 | 24.58468 | 134° | 201km/h | 10792m | 4.3m/s | -50.8°C | 55.1% | 0hPa | 0V | 00:00:00 | 00:00:00 | 00:00:00 | |
| LY3OO-11 | 2026-09-04 12:02:38 | 54.73361 | 24.57152 | 129° | 203km/h | 10689m | 4.7m/s | -49.9°C | 58.2% | 0hPa | 0V | 00:00:00 | 00:00:00 | 00:00:00 | |
| LY3OO-11 | 2026-09-04 12:02:18 | 54.74058 | 24.55829 | 134° | 199km/h | 10574m | 4.1m/s | -48.8°C | 63.8% | 0hPa | 0V | 00:00:00 | 00:00:00 | 00:00:00 | |
| LY3OO-11 | 2026-09-04 12:01:57 | 54.74786 | 24.54418 | 131° | 215km/h | 10468m | 4.1m/s | -48.0°C | 63.3% | 0hPa | 0V | 00:00:00 | 00:00:00 | 00:00:00 | |
| LY3OO-11 | 2026-09-04 12:01:37 | 54.75455 | 24.53054 | 131° | 193km/h | 10336m | 5.7m/s | -47.1°C | 62.3% | 0hPa | 0V | 00:00:00 | 00:00:00 | 00:00:00 | |
| LY3OO-11 | 2026-09-04 12:01:17 | 54.76095 | 24.51731 | 129° | 203km/h | 10235m | 4.8m/s | -46.4°C | 62.9% | 0hPa | 0V | 00:00:00 | 00:00:00 | 00:00:00 | |
| LY3OO-11 | 2026-09-04 12:00:57 | 54.76730 | 24.50378 | 129° | 204km/h | 10126m | 4.6m/s | -45.6°C | 63.9% | 0hPa | 0V | 00:00:00 | 00:00:00 | 00:00:00 | |
| LY3OO-11 | 2026-09-04 12:00:36 | 54.77386 | 24.48945 | 128° | 195km/h | 10004m | 5.7m/s | -44.5°C | 62.1% | 0hPa | 0V | 00:00:00 | 00:00:00 | 00:00:00 | |
| LY3OO-11 | 2026-09-04 12:00:17 | 54.77996 | 24.47592 | 131° | 199km/h | 9902m | 9.9m/s | -43.7°C | 65.2% | 0hPa | 0V | 00:00:00 | 00:00:00 | 00:00:00 | |
| LY3OO-11 | 2026-09-04 11:59:56 | 54.78668 | 24.46161 | 129° | 199km/h | 9783m | 4.8m/s | -42.8°C | 67.5% | 0hPa | 0V | 00:00:00 | 00:00:00 | 00:00:00 | |
| LY3OO-11 | 2026-09-04 11:59:35 | 54.79282 | 24.44780 | 129° | 199km/h | 9665m | 6.4m/s | -41.9°C | 71.6% | 0hPa | 0V | 00:00:00 | 00:00:00 | 00:00:00 | |
| LY3OO-11 | 2026-09-04 11:59:14 | 54.79848 | 24.43430 | 127° | 192km/h | 9515m | 6.3m/s | -40.8°C | 69.2% | 0hPa | 0V | 00:00:00 | 00:00:00 | 00:00:00 | |
| LY3OO-11 | 2026-09-04 11:58:54 | 54.80367 | 24.42128 | 127° | 173km/h | 9395m | 7.8m/s | -39.7°C | 67.4% | 0hPa | 0V | 00:00:00 | 00:00:00 | 00:00:00 | |
| LY3OO-11 | 2026-09-04 11:58:33 | 54.80907 | 24.40825 | 129° | 170km/h | 9274m | 7.0m/s | -38.8°C | 66.3% | 0hPa | 0V | 00:00:00 | 00:00:00 | 00:00:00 | |
| LY3OO-11 | 2026-09-04 11:58:12 | 54.81438 | 24.39593 | 131° | 164km/h | 9164m | 5.8m/s | -37.8°C | 66.3% | 0hPa | 0V | 00:00:00 | 00:00:00 | 00:00:00 | |
| LY3OO-11 | 2026-09-04 11:57:31 | 54.82427 | 24.37277 | 126° | 162km/h | 8919m | 5.7m/s | -35.7°C | 68.5% | 0hPa | 0V | 00:00:00 | 00:00:00 | 00:00:00 | |
| LY3OO-11 | 2026-09-04 11:57:11 | 54.82852 | 24.36156 | 126° | 164km/h | 8807m | 5.2m/s | -34.8°C | 67.1% | 0hPa | 0V | 00:00:00 | 00:00:00 | 00:00:00 | |
| LY3OO-11 | 2026-09-04 11:56:50 | 54.83302 | 24.34980 | 124° | 162km/h | 8695m | 4.8m/s | -33.8°C | 68.4% | 0hPa | 0V | 00:00:00 | 00:00:00 | 00:00:00 | |
| LY3OO-11 | 2026-09-04 11:56:29 | 54.83733 | 24.33759 | 124° | 164km/h | 8583m | 4.3m/s | -33.0°C | 69.0% | 0hPa | 0V | 00:00:00 | 00:00:00 | 00:00:00 | |
| LY3OO-11 | 2026-09-04 11:56:08 | 54.84153 | 24.32564 | 128° | 144km/h | 8467m | 5.4m/s | -32.0°C | 67.8% | 0hPa | 0V | 00:00:00 | 00:00:00 | 00:00:00 | |
| LY3OO-11 | 2026-09-04 11:55:47 | 54.84566 | 24.31390 | 117° | 142km/h | 8339m | 8.8m/s | -31.1°C | 67.7% | 0hPa | 0V | 00:00:00 | 00:00:00 | 00:00:00 | |
| LY3OO-11 | 2026-09-04 11:55:27 | 54.84916 | 24.30272 | 120° | 153km/h | 8228m | 4.9m/s | -30.4°C | 68.4% | 0hPa | 0V | 00:00:00 | 00:00:00 | 00:00:00 | |
| LY3OO-11 | 2026-09-04 11:55:06 | 54.85309 | 24.29134 | 122° | 141km/h | 8115m | 4.1m/s | -29.9°C | 67.5% | 0hPa | 0V | 00:00:00 | 00:00:00 | 00:00:00 | |
| LY3OO-11 | 2026-09-04 11:54:46 | 54.85654 | 24.28078 | 124° | 131km/h | 8014m | 7.6m/s | -29.3°C | 69.0% | 0hPa | 0V | 00:00:00 | 00:00:00 | 00:00:00 | |
| LY3OO-11 | 2026-09-04 11:54:26 | 54.85928 | 24.27021 | 117° | 120km/h | 7908m | 3.0m/s | -28.4°C | 69.2% | 0hPa | 0V | 00:00:00 | 00:00:00 | 00:00:00 | |
| LY3OO-11 | 2026-09-04 11:54:06 | 54.86209 | 24.25972 | 110° | 142km/h | 7808m | 4.9m/s | -27.9°C | 72.1% | 0hPa | 0V | 00:00:00 | 00:00:00 | 00:00:00 | |
| LY3OO-11 | 2026-09-04 11:53:45 | 54.86500 | 24.24771 | 115° | 139km/h | 7706m | 6.0m/s | -27.3°C | 71.7% | 0hPa | 0V | 00:00:00 | 00:00:00 | 00:00:00 | |
| LY3OO-11 | 2026-09-04 11:53:24 | 54.86797 | 24.23531 | 111° | 148km/h | 7602m | 4.2m/s | -26.6°C | 69.4% | 0hPa | 0V | 00:00:00 | 00:00:00 | 00:00:00 | |
| LY3OO-11 | 2026-09-04 11:53:03 | 54.87069 | 24.22334 | 107° | 128km/h | 7486m | 7.7m/s | -26.7°C | 59.0% | 0hPa | 0V | 00:00:00 | 00:00:00 | 00:00:00 | |
| LY3OO-11 | 2026-09-04 11:52:43 | 54.87317 | 24.21362 | 110° | 117km/h | 7378m | 6.6m/s | -26.0°C | 44.0% | 0hPa | 0V | 00:00:00 | 00:00:00 | 00:00:00 | |
| LY3OO-11 | 2026-09-04 11:51:41 | 54.88000 | 24.18385 | 113° | 128km/h | 7043m | 4.0m/s | -23.3°C | 16.2% | 0hPa | 0V | 00:00:00 | 00:00:00 | 00:00:00 | |
| LY3OO-11 | 2026-09-04 11:51:20 | 54.88231 | 24.17377 | 111° | 117km/h | 6929m | 8.2m/s | -23.2°C | 22.7% | 0hPa | 0V | 00:00:00 | 00:00:00 | 00:00:00 | |
| LY3OO-11 | 2026-09-04 11:50:59 | 54.88455 | 24.16471 | 120° | 106km/h | 6802m | 6.8m/s | -23.0°C | 68.0% | 0hPa | 0V | 00:00:00 | 00:00:00 | 00:00:00 | |
| LY3OO-11 | 2026-09-04 11:50:38 | 54.88617 | 24.15545 | 102° | 95km/h | 6689m | 6.0m/s | -22.2°C | 85.1% | 0hPa | 0V | 00:00:00 | 00:00:00 | 00:00:00 | |
| LY3OO-11 | 2026-09-04 11:50:18 | 54.88798 | 24.14647 | 108° | 108km/h | 6577m | 4.5m/s | -21.3°C | 83.7% | 0hPa | 0V | 00:00:00 | 00:00:00 | 00:00:00 | |
| LY3OO-11 | 2026-09-04 11:49:57 | 54.88947 | 24.13783 | 113° | 89km/h | 6454m | 4.0m/s | -20.2°C | 80.3% | 0hPa | 0V | 00:00:00 | 00:00:00 | 00:00:00 | |
| LY3OO-11 | 2026-09-04 11:49:36 | 54.89059 | 24.12984 | 112° | 71km/h | 6339m | 7.1m/s | -19.7°C | 80.5% | 0hPa | 0V | 00:00:00 | 00:00:00 | 00:00:00 | |
| LY3OO-11 | 2026-09-04 11:49:15 | 54.89169 | 24.12280 | 110° | 82km/h | 6234m | 5.0m/s | -18.8°C | 74.7% | 0hPa | 0V | 00:00:00 | 00:00:00 | 00:00:00 | |
| LY3OO-11 | 2026-09-04 11:48:55 | 54.89301 | 24.11567 | 105° | 89km/h | 6123m | 4.5m/s | -17.9°C | 71.4% | 0hPa | 0V | 00:00:00 | 00:00:00 | 00:00:00 | |
| LY3OO-11 | 2026-09-04 11:48:34 | 54.89421 | 24.10816 | 103° | 80km/h | 6000m | 4.9m/s | -17.1°C | 67.7% | 0hPa | 0V | 00:00:00 | 00:00:00 | 00:00:00 | |
| LY3OO-11 | 2026-09-04 11:48:14 | 54.89519 | 24.10094 | 101° | 84km/h | 5889m | 7.9m/s | -16.1°C | 62.5% | 0hPa | 0V | 00:00:00 | 00:00:00 | 00:00:00 | |
| LY3OO-11 | 2026-09-04 11:47:52 | 54.89665 | 24.09369 | 118° | 77km/h | 5772m | 7.8m/s | -15.1°C | 60.0% | 0hPa | 0V | 00:00:00 | 00:00:00 | 00:00:00 | |
| LY3OO-11 | 2026-09-04 11:47:30 | 54.89792 | 24.08658 | 110° | 86km/h | 5655m | 4.9m/s | -14.3°C | 60.5% | 0hPa | 0V | 00:00:00 | 00:00:00 | 00:00:00 | |
| LY3OO-11 | 2026-09-04 11:47:12 | 54.89878 | 24.07958 | 106° | 78km/h | 5550m | 7.7m/s | -13.7°C | 65.4% | 0hPa | 0V | 00:00:00 | 00:00:00 | 00:00:00 | |
| LY3OO-11 | 2026-09-04 11:46:50 | 54.89990 | 24.07277 | 102° | 93km/h | 5441m | 7.4m/s | -13.3°C | 82.7% | 0hPa | 0V | 00:00:00 | 00:00:00 | 00:00:00 | |
| LY3OO-11 | 2026-09-04 11:46:29 | 54.90025 | 24.06565 | 101° | 80km/h | 5328m | 6.1m/s | -12.9°C | 90.5% | 0hPa | 0V | 00:00:00 | 00:00:00 | 00:00:00 | |
| LY3OO-11 | 2026-09-04 11:46:09 | 54.90101 | 24.05868 | 98° | 89km/h | 5211m | 8.0m/s | -12.5°C | 97.0% | 0hPa | 0V | 00:00:00 | 00:00:00 | 00:00:00 | |
| LY3OO-11 | 2026-09-04 11:45:48 | 54.90168 | 24.05138 | 99° | 80km/h | 5094m | 5.3m/s | -11.8°C | 97.7% | 0hPa | 0V | 00:00:00 | 00:00:00 | 00:00:00 | |
| LY3OO-11 | 2026-09-04 11:45:28 | 54.90231 | 24.04384 | 93° | 86km/h | 5004m | 5.4m/s | -12.2°C | 98.9% | 0hPa | 0V | 00:00:00 | 00:00:00 | 00:00:00 | |
| LY3OO-11 | 2026-09-04 11:45:07 | 54.90250 | 24.03704 | 83° | 75km/h | 4888m | 7.5m/s | -11.4°C | 98.9% | 0hPa | 0V | 00:00:00 | 00:00:00 | 00:00:00 | |
| LY3OO-11 | 2026-09-04 11:44:47 | 54.90251 | 24.03065 | 99° | 80km/h | 4772m | 6.4m/s | -10.7°C | 99.3% | 0hPa | 0V | 00:00:00 | 00:00:00 | 00:00:00 | |
| LY3OO-11 | 2026-09-04 11:44:27 | 54.90271 | 24.02427 | 99° | 69km/h | 4654m | 5.8m/s | -10.1°C | 97.7% | 0hPa | 0V | 00:00:00 | 00:00:00 | 00:00:00 | |
| LY3OO-11 | 2026-09-04 11:44:06 | 54.90256 | 24.01837 | 97° | 58km/h | 4532m | 7.1m/s | -10.5°C | 0% | 0hPa | 0V | 00:00:00 | 00:00:00 | 00:00:00 | |
| LY3OO-11 | 2026-09-04 11:43:46 | 54.90258 | 24.01234 | 100° | 77km/h | 4421m | 5.2m/s | -9.9°C | 0% | 0hPa | 0V | 00:00:00 | 00:00:00 | 00:00:00 | |
| LY3OO-11 | 2026-09-04 11:43:25 | 54.90279 | 24.00629 | 101° | 68km/h | 4296m | 5.5m/s | -9.3°C | 0% | 0hPa | 0V | 00:00:00 | 00:00:00 | 00:00:00 | |
| LY3OO-11 | 2026-09-04 11:43:04 | 54.90268 | 24.00034 | 84° | 66km/h | 4179m | 8.0m/s | -8.8°C | 98.9% | 0hPa | 0V | 00:00:00 | 00:00:00 | 00:00:00 | |
| LY3OO-11 | 2026-09-04 11:42:44 | 54.90247 | 23.99443 | 90° | 60km/h | 4055m | 5.4m/s | -8.0°C | 97.0% | 0hPa | 0V | 00:00:00 | 00:00:00 | 00:00:00 | |
| LY3OO-11 | 2026-09-04 11:42:23 | 54.90214 | 23.98777 | 96° | 73km/h | 3932m | 6.1m/s | -7.1°C | 92.0% | 0hPa | 0V | 00:00:00 | 00:00:00 | 00:00:00 | |
| LY3OO-11 | 2026-09-04 11:42:04 | 54.90176 | 23.98178 | 81° | 68km/h | 3825m | 8.3m/s | -6.4°C | 88.4% | 0hPa | 0V | 00:00:00 | 00:00:00 | 00:00:00 | |
| LY3OO-11 | 2026-09-04 11:41:22 | 54.89989 | 23.96946 | 62° | 66km/h | 3609m | 6.0m/s | -5.6°C | 83.5% | 0hPa | 0V | 00:00:00 | 00:00:00 | 00:00:00 | |
| LY3OO-11 | 2026-09-04 11:41:01 | 54.89820 | 23.96390 | 63° | 57km/h | 3489m | 5.8m/s | -5.6°C | 67.7% | 0hPa | 0V | 00:00:00 | 00:00:00 | 00:00:00 | |
| LY3OO-11 | 2026-09-04 11:40:40 | 54.89704 | 23.95958 | 79° | 46km/h | 3367m | 4.0m/s | -4.5°C | 63.7% | 0hPa | 0V | 00:00:00 | 00:00:00 | 00:00:00 | |
| LY3OO-11 | 2026-09-04 11:40:20 | 54.89589 | 23.95512 | 75° | 62km/h | 3260m | 6.1m/s | -3.7°C | 64.2% | 0hPa | 0V | 00:00:00 | 00:00:00 | 00:00:00 | |
| LY3OO-11 | 2026-09-04 11:40:00 | 54.89499 | 23.95040 | 76° | 55km/h | 3144m | 8.1m/s | -3.3°C | 71.0% | 0hPa | 0V | 00:00:00 | 00:00:00 | 00:00:00 | |
| LY3OO-11 | 2026-09-04 11:39:30 | 54.89381 | 23.94377 | 62° | 42km/h | 2973m | 5.0m/s | -1.8°C | 65.1% | 0hPa | 0V | 00:00:00 | 00:00:00 | 00:00:00 | |
| LY3OO-11 | 2026-09-04 11:39:09 | 54.89317 | 23.93946 | 76° | 44km/h | 2856m | 7.3m/s | -1.1°C | 66.3% | 0hPa | 0V | 00:00:00 | 00:00:00 | 00:00:00 | |
| LY3OO-11 | 2026-09-04 11:38:48 | 54.89243 | 23.93505 | 68° | 57km/h | 2739m | 5.4m/s | -0.1°C | 56.3% | 0hPa | 0V | 00:00:00 | 00:00:00 | 00:00:00 | |
| LY3OO-11 | 2026-09-04 11:38:27 | 54.89162 | 23.93099 | 78° | 47km/h | 2626m | 4.1m/s | 0.6°C | 45.1% | 0hPa | 0V | 00:00:00 | 00:00:00 | 00:00:00 | |
| LY3OO-11 | 2026-09-04 11:38:06 | 54.89121 | 23.92740 | 78° | 29km/h | 2514m | 5.0m/s | 1.0°C | 59.3% | 0hPa | 0V | 00:00:00 | 00:00:00 | 00:00:00 | |
| LY3OO-11 | 2026-09-04 11:37:46 | 54.89067 | 23.92395 | 84° | 33km/h | 2409m | 5.0m/s | 1.7°C | 57.8% | 0hPa | 0V | 00:00:00 | 00:00:00 | 00:00:00 | |
| LY3OO-11 | 2026-09-04 11:37:25 | 54.89019 | 23.92088 | 87° | 40km/h | 2302m | 6.0m/s | 2.0°C | 76.1% | 0hPa | 0V | 00:00:00 | 00:00:00 | 00:00:00 | |
| LY3OO-11 | 2026-09-04 11:37:04 | 54.88983 | 23.91699 | 89° | 55km/h | 2200m | 6.1m/s | 2.9°C | 78.9% | 0hPa | 0V | 00:00:00 | 00:00:00 | 00:00:00 | |
| LY3OO-11 | 2026-09-04 11:36:44 | 54.88956 | 23.91270 | 89° | 55km/h | 2098m | 5.4m/s | 3.6°C | 82.5% | 0hPa | 0V | 00:00:00 | 00:00:00 | 00:00:00 | |
| LY3OO-11 | 2026-09-04 11:36:23 | 54.88942 | 23.90756 | 98° | 47km/h | 1989m | 5.5m/s | 4.3°C | 83.8% | 0hPa | 0V | 00:00:00 | 00:00:00 | 00:00:00 | |
| LY3OO-11 | 2026-09-04 11:36:02 | 54.88911 | 23.90277 | 73° | 46km/h | 1875m | 5.4m/s | 4.8°C | 89.3% | 0hPa | 0V | 00:00:00 | 00:00:00 | 00:00:00 | |
| LY3OO-11 | 2026-09-04 11:35:49 | 54.88874 | 23.89845 | 88° | 42km/h | 1754m | 5.4m/s | 5.3°C | 86.7% | 0hPa | 0V | 00:00:00 | 00:00:00 | 00:00:00 | |
| LY3OO-11 | 2026-09-04 11:35:21 | 54.88830 | 23.89485 | 65° | 37km/h | 1652m | 6.4m/s | 6.1°C | 85.9% | 0hPa | 0V | 00:00:00 | 00:00:00 | 00:00:00 | |
| LY3OO-11 | 2026-09-04 11:35:00 | 54.88761 | 23.89069 | 70° | 46km/h | 1536m | 6.5m/s | 7.0°C | 82.0% | 0hPa | 0V | 00:00:00 | 00:00:00 | 00:00:00 | |
| LY3OO-11 | 2026-09-04 11:34:39 | 54.88709 | 23.88676 | 75° | 49km/h | 1423m | 6.5m/s | 7.8°C | 78.4% | 0hPa | 0V | 00:00:00 | 00:00:00 | 00:00:00 | |
| LY3OO-11 | 2026-09-04 11:34:19 | 54.88645 | 23.88279 | 74° | 46km/h | 1318m | 5.4m/s | 8.5°C | 78.2% | 0hPa | 0V | 00:00:00 | 00:00:00 | 00:00:00 | |
| LY3OO-11 | 2026-09-04 11:33:59 | 54.88604 | 23.87829 | 85° | 53km/h | 1206m | 5.1m/s | 9.0°C | 0% | 0hPa | 0V | 00:00:00 | 00:00:00 | 00:00:00 | |
| LY3OO-11 | 2026-09-04 11:33:38 | 54.88576 | 23.87373 | 93° | 47km/h | 1087m | 8.1m/s | 10.0°C | 0% | 0hPa | 0V | 00:00:00 | 00:00:00 | 00:00:00 | |
| LY3OO-11 | 2026-09-04 11:33:18 | 54.88581 | 23.86955 | 91° | 49km/h | 979m | 7.6m/s | 0°C | 0% | 0hPa | 0V | 00:00:00 | 00:00:00 | 00:00:00 | |
| LY3OO-11 | 2026-09-04 11:32:57 | 54.88592 | 23.86488 | 93° | 55km/h | 864m | 5.4m/s | 0°C | 0% | 0hPa | 0V | 00:00:00 | 00:00:00 | 00:00:00 | |
| LY3OO-11 | 2026-09-04 11:32:32 | 54.88592 | 23.85896 | 93° | 55km/h | 733m | 5.5m/s | 0°C | 0% | 0hPa | 0V | 00:00:00 | 00:00:00 | 00:00:00 |